Pagina principală
METAR-TAF:

METAR-TAF

Aeroporturi :

București-Băneasa, România

Aeroportul Internațional București Băneasa - Aurel Vlaicu

Latitudine: 44-30N, longitudine: 026-08E, elevație: 90 m

Observații meteo curente

Raportul a fost făcut în urmă cu 42 de minute, la 08:30 UTC
Vânt 4 kt de la Est, variabil între Nord/Nord-est și Sud-est
Temperatură 18°C
Umiditate 34%
Presiune 1023 hPa
Vizibilitate de 10 km sau mai mult
nu există nori sub 1.500 m și nici cumulonimbus

METAR: LRBS 290830Z 08004KT 020V130 CAVOK 18/02 Q1023 NOSIG

Ora: 12:12 (09:12 UTC)

Prognoză

Raportul a fost făcut în urmă cu 4 ore și 12 de minute, la 05:00 UTC
Prognoză valabilă de la 29 ora 06 UTC la 30 ora 06 UTC
Vânt 4 kt din direcții variabile
Vizibilitate de 10 km sau mai mult
nu există nori sub 1.500 m și nici cumulonimbus
Devenind
de la 29 ora 08 UTC la 29 ora 10 UTC
Vânt 10 kt de la Vest/Sud-vest

TAF: LRBS 290500Z 2906/3006 VRB04KT CAVOK BECMG 2908/2910 25010KT

Observații și prognoze meteo pentru peste 4.000 de aeroporturi (rapoarte METAR și TAF).

Stațiile disponibile sunt reprezentate pe hartă prin puncte galbene și roșii.

Țineți indicatorul mouse-ului pe punctul dorit pentru a vedea denumirea stației.

Apoi, faceți clic pentru a vedea observațiile și prognozele meteorologice.

Pentru a schimba harta: Pentru mărire, faceți clic pe butoanele verzi cu cruce neagră; pentru micșorare, pe butonul verde cu o liniuță; pentru hărți învecinate, pe săgețile verzi.


METAR-TAF: